Time;durP1;ratioP1;P1;durP2;ratioP2;P2;SDS_P1;SDS_P2;PMS_P1;PMS_P2;Temp;Humidity;BMP_temperature;BMP_pressure;BME280_temperature;BME280_humidity;BME280_pressure;Samples;Min_cycle;Max_cycle;Signal;HPM_P1;HPM_P2
2023/07/24 00:01:42;;;;;;;19.88;7.88;;;16.90;99.90;;;;;;5090595;28;20040;-82
2023/07/24 00:04:31;;;;;;;17.33;8.05;;;16.80;99.90;;;;;;5072641;28;20143;-81
2023/07/24 00:07:18;;;;;;;16.88;7.78;;;16.80;99.90;;;;;;5057798;28;20048;-82
2023/07/24 00:10:04;;;;;;;17.42;6.88;;;16.80;99.90;;;;;;5092213;28;20144;-82
2023/07/24 00:12:50;;;;;;;18.75;8.18;;;16.80;99.90;;;;;;5092336;28;20048;-82
2023/07/24 00:15:38;;;;;;;17.23;7.28;;;16.70;99.90;;;;;;5071828;28;20097;-81
2023/07/24 00:18:25;;;;;;;20.90;7.25;;;16.70;99.90;;;;;;5089588;28;20070;-82
2023/07/24 00:21:13;;;;;;;25.25;9.88;;;16.70;99.90;;;;;;5071273;28;20052;-81
2023/07/24 00:23:59;;;;;;;14.40;7.00;;;16.80;99.90;;;;;;5089960;28;20052;-82
2023/07/24 00:26:45;;;;;;;19.20;6.82;;;16.80;99.90;;;;;;5089375;28;20515;-82
2023/07/24 00:29:31;;;;;;;16.17;6.50;;;16.80;99.90;;;;;;5091242;28;20044;-82
2023/07/24 00:32:17;;;;;;;15.63;6.60;;;16.80;99.90;;;;;;5089336;28;20048;-81
2023/07/24 00:35:04;;;;;;;22.60;6.28;;;16.80;99.90;;;;;;5091258;28;20044;-82
2023/07/24 00:37:50;;;;;;;22.58;7.20;;;16.80;99.90;;;;;;5089769;28;20067;-82
2023/07/24 00:40:36;;;;;;;24.88;6.47;;;16.80;99.90;;;;;;5072237;28;20151;-82
2023/07/24 00:43:22;;;;;;;19.02;6.13;;;16.70;99.90;;;;;;5089465;28;20052;-82
2023/07/24 00:46:10;;;;;;;21.40;6.65;;;16.70;99.90;;;;;;5072094;28;20059;-82
2023/07/24 00:48:57;;;;;;;15.32;6.18;;;16.70;99.90;;;;;;5089180;28;20044;-82
2023/07/24 00:51:44;;;;;;;17.77;6.63;;;16.70;99.90;;;;;;5071472;28;20052;-82
2023/07/24 00:54:32;;;;;;;15.32;6.60;;;16.70;99.90;;;;;;5091468;28;20110;-81
2023/07/24 00:57:19;;;;;;;18.38;6.82;;;16.70;99.90;;;;;;5057865;28;20052;-81
2023/07/24 01:00:06;;;;;;;16.00;6.68;;;16.70;99.90;;;;;;5092971;28;20051;-81
2023/07/24 01:02:54;;;;;;;18.00;6.80;;;16.80;99.90;;;;;;5092499;28;20557;-82
2023/07/24 01:05:41;;;;;;;21.95;6.82;;;16.80;99.90;;;;;;5075266;28;20788;-82
2023/07/24 01:08:27;;;;;;;15.82;6.90;;;16.80;99.90;;;;;;5092583;28;20550;-81
2023/07/24 01:11:20;;;;;;;14.30;6.07;;;16.80;99.90;;;;;;5093071;28;20051;-82
2023/07/24 01:14:17;;;;;;;20.38;6.88;;;16.90;99.90;;;;;;5082163;28;20105;-81
2023/07/24 01:17:08;;;;;;;23.10;6.60;;;16.90;99.90;;;;;;5093542;28;20044;-82
2023/07/24 01:19:59;;;;;;;18.95;7.05;;;16.90;99.90;;;;;;5076401;28;20576;-82
2023/07/24 01:23:04;;;;;;;21.38;6.22;;;16.90;99.90;;;;;;5077158;28;20135;-81
2023/07/24 01:25:58;;;;;;;19.33;7.13;;;16.90;99.90;;;;;;5097878;28;20048;-81
2023/07/24 01:28:45;;;;;;;16.60;5.68;;;16.90;99.90;;;;;;5093348;28;20109;-82
2023/07/24 01:31:31;;;;;;;19.20;5.47;;;16.90;99.90;;;;;;5093466;28;20048;-82
2023/07/24 01:34:17;;;;;;;14.23;6.18;;;17.00;99.90;;;;;;5077966;28;20048;-81
2023/07/24 01:37:03;;;;;;;16.77;6.20;;;16.90;99.90;;;;;;5092121;28;20064;-82
2023/07/24 01:39:50;;;;;;;13.50;5.78;;;17.00;99.90;;;;;;5061323;28;20051;-82
2023/07/24 01:42:37;;;;;;;15.27;6.28;;;16.90;99.90;;;;;;5076120;28;20059;-81
2023/07/24 01:45:23;;;;;;;12.85;5.57;;;17.00;99.90;;;;;;5092491;28;20054;-83
2023/07/24 01:48:09;;;;;;;14.50;5.32;;;16.90;99.90;;;;;;5093280;28;20074;-81
2023/07/24 01:50:55;;;;;;;18.92;7.00;;;16.90;99.90;;;;;;5076442;28;20456;-81
2023/07/24 01:53:42;;;;;;;18.40;6.35;;;16.90;99.90;;;;;;5075614;28;20082;-83
2023/07/24 01:56:28;;;;;;;14.10;6.05;;;16.90;99.90;;;;;;5073912;28;20054;-82
2023/07/24 01:59:14;;;;;;;17.80;6.35;;;17.00;99.90;;;;;;5075312;28;20135;-81
2023/07/24 02:02:00;;;;;;;21.20;6.90;;;17.00;99.90;;;;;;5092029;28;20044;-82
2023/07/24 02:04:46;;;;;;;16.02;6.78;;;17.00;99.90;;;;;;5078519;28;20513;-82
2023/07/24 02:07:32;;;;;;;19.92;7.13;;;17.00;99.90;;;;;;5093107;28;20573;-82
2023/07/24 02:10:19;;;;;;;18.10;7.35;;;17.00;99.90;;;;;;5073400;28;20139;-81
2023/07/24 02:13:07;;;;;;;16.85;6.68;;;17.00;99.90;;;;;;5074818;28;20052;-81
2023/07/24 02:15:53;;;;;;;18.63;7.90;;;17.00;99.90;;;;;;5091735;28;20048;-83
2023/07/24 02:18:42;;;;;;;20.45;7.65;;;17.00;99.90;;;;;;5078307;28;20058;-82
2023/07/24 02:21:28;;;;;;;21.80;7.35;;;17.00;99.90;;;;;;5091212;28;20055;-82
2023/07/24 02:24:14;;;;;;;22.20;7.97;;;16.90;99.90;;;;;;5091466;28;20051;-82
2023/07/24 02:27:01;;;;;;;18.05;8.13;;;16.90;99.90;;;;;;5091432;28;20048;-82
2023/07/24 02:29:47;;;;;;;23.90;9.75;;;16.90;99.90;;;;;;5091230;28;20066;-82
2023/07/24 02:32:33;;;;;;;20.20;7.75;;;16.90;99.90;;;;;;5091589;28;20059;-83
2023/07/24 02:35:19;;;;;;;20.27;8.95;;;16.90;99.90;;;;;;5091875;28;20426;-82
2023/07/24 02:38:05;;;;;;;23.38;8.63;;;17.00;99.90;;;;;;5074213;28;20063;-82
2023/07/24 02:40:51;;;;;;;24.40;10.38;;;17.00;99.90;;;;;;5075949;28;20080;-82
2023/07/24 02:43:37;;;;;;;22.20;8.50;;;16.90;99.90;;;;;;5077551;28;20082;-82
2023/07/24 02:46:24;;;;;;;17.30;7.55;;;17.00;99.90;;;;;;5091414;28;20040;-82
2023/07/24 02:49:10;;;;;;;22.73;9.10;;;17.00;99.90;;;;;;5090914;28;20051;-82
2023/07/24 02:51:56;;;;;;;19.38;8.35;;;17.00;99.90;;;;;;5090729;28;20461;-82
2023/07/24 02:54:42;;;;;;;22.17;7.70;;;17.00;99.90;;;;;;5090667;28;20126;-82
2023/07/24 02:57:28;;;;;;;17.77;7.82;;;17.00;99.90;;;;;;5091457;28;20139;-82
2023/07/24 03:00:15;;;;;;;18.00;8.25;;;17.00;99.90;;;;;;5091413;28;20048;-82
2023/07/24 03:03:01;;;;;;;17.73;7.88;;;17.00;99.90;;;;;;5090693;28;20048;-82
2023/07/24 03:05:47;;;;;;;23.05;7.90;;;17.00;99.90;;;;;;5090881;28;20048;-81
2023/07/24 03:08:33;;;;;;;26.30;9.30;;;17.00;99.90;;;;;;5092476;28;20052;-81
2023/07/24 03:11:19;;;;;;;17.23;7.78;;;17.00;99.90;;;;;;5075960;28;20051;-81
2023/07/24 03:14:05;;;;;;;21.00;7.72;;;17.00;99.90;;;;;;5091225;28;20048;-81
2023/07/24 03:16:51;;;;;;;16.92;8.35;;;17.10;99.90;;;;;;5073400;28;20066;-81
2023/07/24 03:19:37;;;;;;;18.10;8.05;;;17.10;99.90;;;;;;5092144;28;20581;-81
2023/07/24 03:22:23;;;;;;;18.70;7.53;;;17.10;99.90;;;;;;5073560;28;20158;-81
2023/07/24 03:25:09;;;;;;;26.23;7.65;;;17.10;99.90;;;;;;5090014;28;20815;-82
2023/07/24 03:27:55;;;;;;;22.45;7.53;;;17.10;99.90;;;;;;5059437;28;20096;-81
2023/07/24 03:30:41;;;;;;;17.65;7.22;;;17.10;99.90;;;;;;5072764;28;20048;-81
2023/07/24 03:33:28;;;;;;;21.42;8.45;;;17.10;99.90;;;;;;5077676;28;20090;-81
2023/07/24 03:36:14;;;;;;;20.17;8.93;;;17.00;99.90;;;;;;5071880;28;20044;-82
2023/07/24 03:39:00;;;;;;;16.20;7.60;;;17.00;99.90;;;;;;5072590;28;20087;-81
2023/07/24 03:41:46;;;;;;;28.08;7.85;;;17.00;99.90;;;;;;5091138;28;20050;-81
2023/07/24 03:44:32;;;;;;;18.92;7.90;;;17.10;99.90;;;;;;5090950;28;20060;-81
2023/07/24 03:47:18;;;;;;;15.95;7.47;;;17.00;99.90;;;;;;5089683;28;20050;-81
2023/07/24 03:50:05;;;;;;;22.42;8.15;;;17.00;99.90;;;;;;5089691;28;20051;-81
2023/07/24 03:52:51;;;;;;;16.48;7.38;;;17.00;99.90;;;;;;5091990;28;20052;-81
2023/07/24 03:55:37;;;;;;;17.10;7.15;;;17.10;99.90;;;;;;5089791;28;20052;-81
2023/07/24 03:58:23;;;;;;;35.65;9.30;;;17.00;99.90;;;;;;5089877;28;20060;-81
2023/07/24 04:01:09;;;;;;;22.88;8.10;;;17.10;99.90;;;;;;5072608;28;20056;-82
2023/07/24 04:03:55;;;;;;;19.20;8.82;;;17.00;99.90;;;;;;5090152;28;20044;-81
2023/07/24 04:06:41;;;;;;;17.80;7.55;;;17.10;99.90;;;;;;5091883;28;20453;-82
2023/07/24 04:09:28;;;;;;;18.08;7.47;;;17.10;99.90;;;;;;5091307;28;20048;-82
2023/07/24 04:12:14;;;;;;;16.60;7.53;;;17.10;99.90;;;;;;5089319;28;20069;-82
2023/07/24 04:15:00;;;;;;;17.83;6.85;;;17.10;99.90;;;;;;5089613;28;20419;-81
2023/07/24 04:17:46;;;;;;;21.75;7.10;;;17.10;99.90;;;;;;5090125;28;20056;-81
2023/07/24 04:20:32;;;;;;;21.58;6.78;;;17.10;99.90;;;;;;5089986;28;20040;-82
2023/07/24 04:23:18;;;;;;;15.77;6.07;;;17.10;99.90;;;;;;5089331;28;20412;-82
2023/07/24 04:26:04;;;;;;;20.05;6.22;;;17.10;99.90;;;;;;5090464;28;20475;-82
2023/07/24 04:28:50;;;;;;;15.10;6.35;;;17.10;99.90;;;;;;5057029;28;20063;-81
2023/07/24 04:31:36;;;;;;;14.07;6.13;;;17.10;99.90;;;;;;5089477;28;20484;-81
2023/07/24 04:34:22;;;;;;;23.00;7.15;;;17.10;99.90;;;;;;5075434;28;20063;-81
2023/07/24 04:37:08;;;;;;;17.65;7.55;;;17.10;99.90;;;;;;5075657;28;20055;-81
2023/07/24 04:39:54;;;;;;;15.15;6.68;;;17.10;99.90;;;;;;5076276;28;20499;-81
2023/07/24 04:42:41;;;;;;;15.90;6.47;;;17.10;99.90;;;;;;5095246;28;20090;-82
2023/07/24 04:45:27;;;;;;;18.02;6.53;;;17.10;99.90;;;;;;5076360;28;20048;-81
2023/07/24 04:48:13;;;;;;;13.50;5.78;;;17.10;99.90;;;;;;5093362;28;20056;-81
2023/07/24 04:50:59;;;;;;;16.42;5.50;;;17.00;99.90;;;;;;5093421;28;20044;-81
2023/07/24 04:53:45;;;;;;;16.25;5.82;;;17.10;99.90;;;;;;5076155;28;20189;-81
2023/07/24 04:56:31;;;;;;;16.88;6.63;;;17.10;99.90;;;;;;5094048;28;20036;-81
2023/07/24 04:59:17;;;;;;;14.35;5.78;;;17.10;99.90;;;;;;5062994;28;20105;-81
2023/07/24 05:02:03;;;;;;;14.68;6.22;;;17.10;99.90;;;;;;5063657;28;20470;-82
2023/07/24 05:04:50;;;;;;;14.63;5.45;;;17.10;99.90;;;;;;5093757;28;20082;-82
2023/07/24 05:07:36;;;;;;;20.13;6.63;;;17.20;99.90;;;;;;5093020;28;20136;-81
2023/07/24 05:10:22;;;;;;;21.08;6.35;;;17.20;99.90;;;;;;5093337;28;20048;-82
2023/07/24 05:13:08;;;;;;;17.52;5.75;;;17.20;99.90;;;;;;5074169;28;20484;-81
2023/07/24 05:15:54;;;;;;;14.10;5.82;;;17.20;99.90;;;;;;5093446;28;20052;-81
2023/07/24 05:18:40;;;;;;;10.32;5.10;;;17.30;99.90;;;;;;5092487;28;20131;-81
2023/07/24 05:21:26;;;;;;;22.70;6.65;;;17.30;99.90;;;;;;5078938;28;20052;-82
2023/07/24 05:24:12;;;;;;;14.68;6.07;;;17.30;99.90;;;;;;5061063;28;20052;-81
2023/07/24 05:26:58;;;;;;;21.40;7.90;;;17.30;99.90;;;;;;5076724;28;20048;-82
2023/07/24 05:29:45;;;;;;;18.70;6.60;;;17.40;99.90;;;;;;5092513;28;20140;-81
2023/07/24 05:32:31;;;;;;;20.55;6.88;;;17.30;99.90;;;;;;5094105;28;20118;-82
2023/07/24 05:35:17;;;;;;;15.77;6.30;;;17.40;99.90;;;;;;5092459;28;20119;-82
2023/07/24 05:38:03;;;;;;;15.82;6.03;;;17.40;99.90;;;;;;5093595;28;20056;-81
2023/07/24 05:41:03;;;;;;;18.67;6.05;;;17.40;99.90;;;;;;5092576;28;20552;-80
2023/07/24 05:43:50;;;;;;;14.23;5.97;;;17.40;99.90;;;;;;5090977;28;20449;-81
2023/07/24 05:46:36;;;;;;;21.50;6.57;;;17.40;99.90;;;;;;5092178;28;20055;-81
2023/07/24 05:49:22;;;;;;;14.65;6.28;;;17.40;99.90;;;;;;5092273;28;20123;-81
2023/07/24 05:52:08;;;;;;;21.40;6.07;;;17.40;99.90;;;;;;5091964;28;20056;-81
2023/07/24 05:54:54;;;;;;;17.42;7.05;;;17.40;99.90;;;;;;5093125;28;20063;-80
2023/07/24 05:57:40;;;;;;;15.13;6.45;;;17.40;99.90;;;;;;5092535;28;20109;-81
2023/07/24 06:00:27;;;;;;;15.10;6.90;;;17.40;99.90;;;;;;5078732;28;20055;-83
2023/07/24 06:03:13;;;;;;;15.13;5.93;;;17.60;99.90;;;;;;5073496;28;20236;-82
2023/07/24 06:05:59;;;;;;;19.30;6.35;;;17.80;99.90;;;;;;5092085;28;20411;-82
2023/07/24 06:08:47;;;;;;;20.17;6.22;;;18.00;99.90;;;;;;5074681;28;20048;-82
2023/07/24 06:11:33;;;;;;;31.08;6.80;;;18.10;99.90;;;;;;5092989;28;20135;-82
2023/07/24 06:14:19;;;;;;;17.98;5.55;;;18.30;99.90;;;;;;5092702;28;20048;-82
2023/07/24 06:17:05;;;;;;;20.25;6.97;;;18.40;99.90;;;;;;5075929;28;20178;-82
2023/07/24 06:19:51;;;;;;;15.15;6.10;;;18.50;99.90;;;;;;5091086;28;20062;-82
2023/07/24 06:22:38;;;;;;;16.20;6.60;;;18.50;99.90;;;;;;5076769;28;20047;-82
2023/07/24 06:25:24;;;;;;;20.90;5.97;;;18.50;99.90;;;;;;5090685;28;20044;-82
2023/07/24 06:28:10;;;;;;;14.18;5.25;;;18.50;99.90;;;;;;5076279;28;20052;-82
2023/07/24 06:30:56;;;;;;;14.25;5.78;;;18.60;99.90;;;;;;5091294;28;20420;-82
2023/07/24 06:33:42;;;;;;;19.10;5.63;;;18.70;99.90;;;;;;5091810;28;20492;-82
2023/07/24 06:36:28;;;;;;;19.80;6.05;;;18.80;99.90;;;;;;5073760;28;20047;-82
2023/07/24 06:39:15;;;;;;;18.67;6.57;;;18.90;99.90;;;;;;5092339;28;20052;-82
2023/07/24 06:42:01;;;;;;;13.82;5.82;;;19.00;99.90;;;;;;5093196;28;20134;-81
2023/07/24 06:44:47;;;;;;;18.13;5.90;;;19.10;99.90;;;;;;5092610;28;20059;-82
2023/07/24 06:47:33;;;;;;;17.65;6.05;;;19.20;99.90;;;;;;5092304;28;20094;-81
2023/07/24 06:50:19;;;;;;;19.02;5.93;;;19.20;99.90;;;;;;5090995;28;20579;-83
2023/07/24 06:53:05;;;;;;;14.85;5.35;;;19.10;99.90;;;;;;5091504;28;20101;-82
2023/07/24 06:55:51;;;;;;;20.02;6.38;;;19.30;99.90;;;;;;5092112;28;20109;-82
2023/07/24 06:58:38;;;;;;;16.70;5.95;;;19.20;99.90;;;;;;5073302;28;20044;-82
2023/07/24 07:01:24;;;;;;;18.33;7.47;;;19.30;99.90;;;;;;5090773;28;20534;-82
2023/07/24 07:04:10;;;;;;;14.45;5.72;;;19.50;99.90;;;;;;5092276;28;20495;-81
2023/07/24 07:06:56;;;;;;;13.80;5.82;;;19.60;99.90;;;;;;5072705;28;20048;-82
2023/07/24 07:09:42;;;;;;;18.20;6.18;;;19.70;99.90;;;;;;5092204;28;20044;-80
2023/07/24 07:12:28;;;;;;;19.20;6.22;;;19.60;99.90;;;;;;5075759;28;20048;-82
2023/07/24 07:15:17;;;;;;;21.05;6.22;;;19.60;99.90;;;;;;5077070;28;20094;-82
2023/07/24 07:18:04;;;;;;;14.68;5.97;;;19.70;99.90;;;;;;5089747;28;20545;-82
2023/07/24 07:20:52;;;;;;;18.77;6.20;;;19.70;99.90;;;;;;5092004;28;20083;-82
2023/07/24 07:23:38;;;;;;;19.52;6.63;;;19.60;99.90;;;;;;5090854;28;20048;-81
2023/07/24 07:26:25;;;;;;;13.73;5.63;;;19.60;99.90;;;;;;5090945;28;20048;-82
2023/07/24 07:29:11;;;;;;;15.75;5.57;;;19.60;99.90;;;;;;5092080;28;20044;-82
2023/07/24 07:31:57;;;;;;;18.65;5.82;;;19.70;99.90;;;;;;5090956;28;20059;-82
2023/07/24 07:34:43;;;;;;;17.75;5.80;;;19.80;99.90;;;;;;5090903;28;20052;-81
2023/07/24 07:37:29;;;;;;;20.30;7.05;;;20.10;99.90;;;;;;5090560;28;20586;-83
2023/07/24 07:40:15;;;;;;;14.88;5.63;;;20.10;99.90;;;;;;5091574;28;20047;-82
2023/07/24 07:43:01;;;;;;;17.75;5.45;;;20.10;99.90;;;;;;5076030;28;20059;-82
2023/07/24 07:45:48;;;;;;;13.02;5.88;;;20.10;99.90;;;;;;5073902;28;20059;-82
2023/07/24 07:48:34;;;;;;;13.90;5.63;;;20.10;99.90;;;;;;5090893;28;20051;-81
2023/07/24 07:51:20;;;;;;;15.63;5.68;;;20.10;99.90;;;;;;5060435;28;20517;-82
2023/07/24 07:54:06;;;;;;;18.17;5.80;;;20.10;99.90;;;;;;5090470;28;20055;-82
2023/07/24 07:56:52;;;;;;;17.88;5.88;;;20.00;99.90;;;;;;5089375;28;20109;-82
2023/07/24 07:59:39;;;;;;;15.60;5.43;;;19.90;99.90;;;;;;5071224;28;20052;-82
2023/07/24 08:02:25;;;;;;;19.00;6.47;;;20.00;99.90;;;;;;5090401;28;20557;-82
2023/07/24 08:05:11;;;;;;;13.15;5.35;;;20.10;99.90;;;;;;5090295;28;20641;-82
2023/07/24 08:07:57;;;;;;;11.18;4.75;;;20.40;99.90;;;;;;5089630;28;20056;-83
2023/07/24 08:10:43;;;;;;;15.25;5.45;;;20.40;99.90;;;;;;5075497;28;20067;-81
2023/07/24 08:13:29;;;;;;;13.35;5.57;;;20.50;99.90;;;;;;5089369;28;20392;-81
2023/07/24 08:16:19;;;;;;;13.48;5.40;;;20.60;99.90;;;;;;5072345;28;20062;-82
2023/07/24 08:19:05;;;;;;;17.23;6.47;;;20.60;99.90;;;;;;5089078;28;20520;-82
2023/07/24 08:21:51;;;;;;;18.35;6.68;;;20.60;99.90;;;;;;5090951;28;20044;-82
2023/07/24 08:24:37;;;;;;;15.48;6.07;;;20.60;99.90;;;;;;5090371;28;20079;-83
2023/07/24 08:27:23;;;;;;;15.07;5.30;;;20.70;99.90;;;;;;5073391;28;20504;-83
2023/07/24 08:30:10;;;;;;;12.82;5.32;;;20.80;99.90;;;;;;5089407;28;20562;-83
2023/07/24 08:32:56;;;;;;;17.30;6.50;;;21.00;99.90;;;;;;5090408;28;20047;-83
2023/07/24 08:35:42;;;;;;;13.23;5.85;;;21.30;99.90;;;;;;5073589;28;20048;-82
2023/07/24 08:38:29;;;;;;;18.25;6.70;;;21.80;99.90;;;;;;5090898;28;20487;-83
2023/07/24 08:41:15;;;;;;;13.63;4.90;;;22.10;99.90;;;;;;5061331;28;20700;-83
2023/07/24 08:44:01;;;;;;;13.38;5.05;;;22.30;99.90;;;;;;5092074;28;20054;-83
2023/07/24 08:46:49;;;;;;;16.55;6.22;;;22.10;99.90;;;;;;5090191;28;20133;-80
2023/07/24 08:49:36;;;;;;;12.30;5.40;;;22.00;99.90;;;;;;5089483;28;20047;-80
2023/07/24 08:52:23;;;;;;;17.35;5.25;;;22.20;99.90;;;;;;5072511;28;20044;-80
2023/07/24 08:55:09;;;;;;;10.38;4.40;;;22.30;99.90;;;;;;5089709;28;20510;-80
2023/07/24 08:57:55;;;;;;;17.88;6.47;;;22.20;99.90;;;;;;5091205;28;20052;-82
2023/07/24 09:00:42;;;;;;;16.75;4.45;;;21.90;99.90;;;;;;5090412;28;20063;-82
2023/07/24 09:03:28;;;;;;;9.30;2.80;;;21.70;99.90;;;;;;5090121;28;20048;-82
2023/07/24 09:06:15;;;;;;;7.07;2.70;;;21.40;99.90;;;;;;5074269;28;20496;-83
2023/07/24 09:09:01;;;;;;;9.93;3.58;;;21.20;99.90;;;;;;5089677;28;20055;-81
2023/07/24 09:11:52;;;;;;;36.00;8.25;;;20.70;99.90;;;;;;5073916;28;20044;-80
2023/07/24 09:14:38;;;;;;;20.95;7.47;;;20.20;99.90;;;;;;5091166;28;20048;-82
2023/07/24 09:17:24;;;;;;;17.60;5.85;;;19.80;99.90;;;;;;5092577;28;20224;-81
2023/07/24 09:20:10;;;;;;;15.35;5.40;;;19.40;99.90;;;;;;5093139;28;20089;-80
2023/07/24 09:22:56;;;;;;;12.48;4.95;;;19.20;99.90;;;;;;5074509;28;20054;-78
2023/07/24 09:25:44;;;;;;;16.73;5.65;;;19.20;99.90;;;;;;5076167;28;20056;-80
2023/07/24 09:28:31;;;;;;;13.73;5.90;;;19.30;99.90;;;;;;5075127;28;20135;-81
2023/07/24 09:31:17;;;;;;;13.45;5.63;;;19.50;99.90;;;;;;5061046;28;20435;-80
2023/07/24 09:34:03;;;;;;;13.43;5.82;;;19.60;99.90;;;;;;5075123;28;20056;-82
2023/07/24 09:36:49;;;;;;;15.82;6.55;;;19.80;99.90;;;;;;5092650;28;20212;-82
2023/07/24 09:39:35;;;;;;;13.60;5.85;;;19.90;99.90;;;;;;5092093;28;20054;-81
2023/07/24 09:42:31;;;;;;;14.65;6.15;;;19.80;99.90;;;;;;5092254;28;20044;-82
2023/07/24 09:45:17;;;;;;;13.15;6.72;;;19.80;99.90;;;;;;5092118;28;20044;-82
2023/07/24 09:48:04;;;;;;;13.65;6.85;;;19.60;99.90;;;;;;5092268;28;20059;-82
2023/07/24 09:50:57;;;;;;;10.68;6.32;;;19.50;99.90;;;;;;5092326;28;20453;-83
2023/07/24 09:53:50;;;;;;;10.10;6.32;;;19.60;99.90;;;;;;5092257;28;20070;-80
2023/07/24 09:56:37;;;;;;;12.27;6.18;;;19.90;99.90;;;;;;5092107;28;20043;-80
2023/07/24 09:59:25;;;;;;;14.55;6.00;;;20.40;99.90;;;;;;5074290;28;20055;-80
2023/07/24 10:02:12;;;;;;;13.20;7.82;;;20.60;99.90;;;;;;5093026;28;20044;-81
2023/07/24 10:04:59;;;;;;;7.40;4.95;;;20.50;99.90;;;;;;5091468;28;20040;-80
2023/07/24 10:07:46;;;;;;;8.25;5.07;;;20.40;99.90;;;;;;5072953;28;20488;-82
2023/07/24 10:10:35;;;;;;;9.50;4.90;;;20.10;99.90;;;;;;5091259;28;20594;-82
2023/07/24 10:13:22;;;;;;;8.52;4.97;;;20.10;99.90;;;;;;5074019;28;20111;-81
2023/07/24 10:16:08;;;;;;;12.10;5.18;;;20.10;99.90;;;;;;5092938;28;20052;-82
2023/07/24 10:18:54;;;;;;;9.45;4.90;;;20.20;99.90;;;;;;5090869;28;20060;-82
2023/07/24 10:21:46;;;;;;;7.88;4.78;;;20.60;99.90;;;;;;5092948;28;20047;-82
2023/07/24 10:24:33;;;;;;;9.20;4.47;;;21.00;99.90;;;;;;5074186;28;20052;-82
2023/07/24 10:27:24;;;;;;;8.13;4.72;;;20.90;99.90;;;;;;5076992;28;20082;-82
2023/07/24 10:30:10;;;;;;;9.60;4.20;;;21.00;99.90;;;;;;5094430;28;20553;-82
2023/07/24 10:33:04;;;;;;;8.02;4.57;;;21.30;99.90;;;;;;5092807;28;20050;-81
2023/07/24 10:35:54;;;;;;;7.82;4.40;;;21.60;99.90;;;;;;5091955;28;20044;-82
2023/07/24 10:38:41;;;;;;;6.03;3.97;;;21.60;99.90;;;;;;5092440;28;20526;-82
2023/07/24 10:41:37;;;;;;;7.35;4.30;;;21.40;99.90;;;;;;5092497;28;20079;-82
2023/07/24 10:44:32;;;;;;;6.65;4.43;;;21.50;99.90;;;;;;5095278;28;20056;-81
2023/07/24 10:47:20;;;;;;;5.60;3.78;;;21.60;99.90;;;;;;5095163;28;20079;-82
2023/07/24 10:50:07;;;;;;;5.75;4.10;;;21.50;99.90;;;;;;5061057;28;20139;-82
2023/07/24 10:52:53;;;;;;;9.05;4.55;;;21.40;99.90;;;;;;5091336;28;20117;-82
2023/07/24 10:55:39;;;;;;;6.28;3.72;;;21.40;99.90;;;;;;5091131;28;20048;-82
2023/07/24 10:58:26;;;;;;;6.75;3.78;;;21.30;99.90;;;;;;5072540;28;20079;-82
2023/07/24 11:01:14;;;;;;;6.30;4.20;;;21.00;99.90;;;;;;5090476;28;20044;-82
2023/07/24 11:04:00;;;;;;;10.35;4.63;;;21.00;99.90;;;;;;5091103;28;20155;-81
2023/07/24 11:06:53;;;;;;;6.68;4.20;;;21.20;99.90;;;;;;5089735;28;20048;-80
2023/07/24 11:09:40;;;;;;;7.90;3.45;;;21.50;99.90;;;;;;5077289;28;20126;-81
2023/07/24 11:12:30;;;;;;;6.40;3.90;;;21.60;99.90;;;;;;5091716;28;20126;-80
2023/07/24 11:15:23;;;;;;;5.93;3.75;;;21.60;99.90;;;;;;5060507;28;20141;-82
2023/07/24 11:18:10;;;;;;;7.70;3.50;;;21.60;99.90;;;;;;5073011;28;20044;-82
2023/07/24 11:20:56;;;;;;;8.63;3.75;;;21.80;99.90;;;;;;5090507;28;20078;-81
2023/07/24 11:23:48;;;;;;;6.15;3.20;;;21.90;99.90;;;;;;5090459;28;20423;-81
2023/07/24 11:26:34;;;;;;;5.57;2.80;;;22.10;99.90;;;;;;5092761;28;20055;-82
2023/07/24 11:29:20;;;;;;;5.70;3.00;;;21.80;99.90;;;;;;5092094;28;20055;-81
2023/07/24 11:32:06;;;;;;;8.73;3.20;;;22.10;99.90;;;;;;5091819;28;20384;-81
2023/07/24 11:34:53;;;;;;;4.80;2.70;;;22.70;99.90;;;;;;5091338;28;20063;-81
2023/07/24 11:37:39;;;;;;;5.13;2.42;;;23.10;99.90;;;;;;5090232;28;20040;-81
2023/07/24 11:40:37;;;;;;;6.28;2.95;;;22.70;99.90;;;;;;5089853;28;20052;-82
2023/07/24 11:43:24;;;;;;;6.65;2.78;;;22.40;99.90;;;;;;5090536;28;20052;-82
2023/07/24 11:46:10;;;;;;;5.55;2.50;;;22.80;99.90;;;;;;5090302;28;20433;-81
2023/07/24 11:48:57;;;;;;;5.18;2.53;;;22.70;99.90;;;;;;5089758;28;20047;-82
2023/07/24 11:51:43;;;;;;;3.25;1.30;;;23.10;99.90;;;;;;5090292;28;20258;-82
2023/07/24 11:54:29;;;;;;;2.90;1.42;;;23.50;99.90;;;;;;5089391;28;20496;-82
2023/07/24 11:57:16;;;;;;;3.70;1.63;;;24.00;99.90;;;;;;5089529;28;20571;-81
2023/07/24 12:00:05;;;;;;;3.28;1.30;;;24.30;99.90;;;;;;5058312;28;20059;-82
2023/07/24 12:02:54;;;;;;;4.68;1.50;;;24.60;99.90;;;;;;5058989;28;20063;-82
2023/07/24 12:05:42;;;;;;;4.90;1.20;;;24.90;99.90;;;;;;5089635;28;20445;-81
2023/07/24 12:08:34;;;;;;;3.17;0.80;;;25.00;99.90;;;;;;5089823;28;20506;-80
2023/07/24 12:11:20;;;;;;;3.63;1.42;;;25.30;99.90;;;;;;5091273;28;20047;-81
2023/07/24 12:14:06;;;;;;;3.00;1.00;;;25.00;99.90;;;;;;5059390;28;20135;-82
2023/07/24 12:17:09;;;;;;;4.95;0.90;;;24.80;99.90;;;;;;5090175;28;20048;-82
2023/07/24 12:19:55;;;;;;;3.70;1.10;;;24.70;99.90;;;;;;5093960;28;20051;-80
2023/07/24 12:22:41;;;;;;;6.03;1.00;;;24.50;99.90;;;;;;5090128;28;20120;-82
2023/07/24 12:25:27;;;;;;;2.13;0.60;;;24.50;99.90;;;;;;5089456;28;20139;-82
2023/07/24 12:28:14;;;;;;;4.47;1.15;;;24.40;99.90;;;;;;5088559;28;20113;-81
2023/07/24 12:31:00;;;;;;;7.60;1.20;;;25.20;99.90;;;;;;5089274;28;20056;-82
2023/07/24 12:33:46;;;;;;;2.90;0.90;;;25.00;99.90;;;;;;5072968;28;20056;-82
2023/07/24 12:36:32;;;;;;;5.82;1.00;;;25.20;99.90;;;;;;5089300;28;20056;-81
2023/07/24 12:39:18;;;;;;;3.72;1.13;;;25.80;99.90;;;;;;5090187;28;20044;-82
2023/07/24 12:42:05;;;;;;;6.95;1.60;;;26.10;99.90;;;;;;5089283;28;20040;-82
2023/07/24 12:44:51;;;;;;;8.30;1.50;;;26.40;99.90;;;;;;5089114;28;20051;-81
2023/07/24 12:47:37;;;;;;;5.75;1.50;;;25.90;99.90;;;;;;5070901;28;20056;-82
2023/07/24 12:50:23;;;;;;;9.45;1.85;;;26.30;99.90;;;;;;5090245;28;20067;-82
2023/07/24 12:53:09;;;;;;;5.60;1.20;;;26.90;99.90;;;;;;5089970;28;20087;-82
2023/07/24 12:55:55;;;;;;;5.53;1.40;;;27.20;99.90;;;;;;5093153;28;20062;-82
2023/07/24 12:58:41;;;;;;;4.63;1.23;;;27.20;99.40;;;;;;5094158;28;20075;-83
2023/07/24 13:01:28;;;;;;;6.93;1.33;;;27.20;99.10;;;;;;5094210;28;20083;-82
2023/07/24 13:04:14;;;;;;;7.53;1.73;;;27.20;98.80;;;;;;5061746;28;20048;-83
2023/07/24 13:07:00;;;;;;;5.90;1.35;;;27.20;98.50;;;;;;5094656;28;20055;-82
2023/07/24 13:09:46;;;;;;;6.90;1.55;;;27.30;97.90;;;;;;5093454;28;20562;-81
2023/07/24 13:12:32;;;;;;;9.85;1.80;;;27.40;98.30;;;;;;5093383;28;20052;-81
2023/07/24 13:15:18;;;;;;;6.03;1.30;;;27.60;98.10;;;;;;5092705;28;20040;-82
2023/07/24 13:18:05;;;;;;;5.47;2.03;;;27.60;98.30;;;;;;5092389;28;20121;-82
2023/07/24 13:20:51;;;;;;;7.78;2.10;;;27.20;97.90;;;;;;5093364;28;20052;-83
2023/07/24 13:23:37;;;;;;;8.85;1.60;;;26.80;97.80;;;;;;5075382;28;20060;-82
2023/07/24 13:26:23;;;;;;;7.45;1.65;;;26.20;97.50;;;;;;5094477;28;20143;-82
2023/07/24 13:29:09;;;;;;;7.40;2.17;;;25.70;98.00;;;;;;5092610;28;20134;-81
2023/07/24 13:31:55;;;;;;;9.23;2.33;;;24.80;98.20;;;;;;5093114;28;20113;-82
2023/07/24 13:34:41;;;;;;;10.45;2.30;;;24.40;98.90;;;;;;5092613;28;20044;-82
2023/07/24 13:37:27;;;;;;;8.35;1.80;;;23.90;99.90;;;;;;5092766;28;20411;-82
2023/07/24 13:40:13;;;;;;;7.03;1.77;;;23.50;99.90;;;;;;5093557;28;20052;-82
2023/07/24 13:42:59;;;;;;;7.07;1.40;;;23.20;99.90;;;;;;5092444;28;20048;-82
2023/07/24 13:45:45;;;;;;;6.18;1.67;;;22.90;99.90;;;;;;5092454;28;20284;-82
2023/07/24 13:48:31;;;;;;;10.95;1.92;;;23.10;99.90;;;;;;5075301;28;20052;-82
2023/07/24 13:51:17;;;;;;;12.15;2.55;;;22.90;99.90;;;;;;5074629;28;20404;-82
2023/07/24 13:54:03;;;;;;;6.22;1.00;;;22.90;99.90;;;;;;5060354;28;20109;-81
2023/07/24 13:56:49;;;;;;;5.28;1.80;;;22.80;99.90;;;;;;5075841;28;20052;-81
2023/07/24 13:59:38;;;;;;;7.07;1.92;;;22.50;99.90;;;;;;5077060;28;20201;-82
2023/07/24 14:02:24;;;;;;;6.82;1.35;;;22.30;99.90;;;;;;5091894;28;20502;-82
2023/07/24 14:05:10;;;;;;;6.85;1.38;;;22.10;99.90;;;;;;5090366;28;20492;-82
2023/07/24 14:07:56;;;;;;;8.35;1.80;;;21.80;99.90;;;;;;5094600;28;20130;-82
2023/07/24 14:10:42;;;;;;;8.95;1.52;;;21.50;99.80;;;;;;5091554;28;20686;-82
2023/07/24 14:13:28;;;;;;;5.68;1.90;;;21.40;99.90;;;;;;5092653;28;20047;-82
2023/07/24 14:16:14;;;;;;;6.03;1.50;;;21.40;99.90;;;;;;5092272;28;20056;-81
2023/07/24 14:19:00;;;;;;;7.70;1.10;;;21.50;99.90;;;;;;5073431;28;20104;-83
2023/07/24 14:21:46;;;;;;;4.72;1.50;;;21.30;99.80;;;;;;5060593;28;20591;-81